TimeEST,TemperatureF,Dew PointF,Humidity,Sea Level PressureIn,VisibilityMPH,Wind Direction,Wind SpeedMPH,Gust SpeedMPH,PrecipitationIn,Events,Conditions,WindDirDegrees,DateUTC
12:53 AM,71.1,68.0,90,29.96,10.0,Calm,Calm,-,N/A,,Partly Cloudy,0,2012-12-18 05:53:00
1:53 AM,69.1,66.9,93,29.95,10.0,Calm,Calm,-,N/A,,Scattered Clouds,0,2012-12-18 06:53:00
2:53 AM,69.1,66.9,93,29.94,7.0,Calm,Calm,-,N/A,,Scattered Clouds,0,2012-12-18 07:53:00
3:04 AM,69.8,66.2,88,29.94,7.0,Calm,Calm,-,N/A,,Scattered Clouds,0,2012-12-18 08:04:00
3:42 AM,69.8,68.0,94,29.94,7.0,Calm,Calm,-,N/A,,Overcast,0,2012-12-18 08:42:00
3:53 AM,70.0,68.0,93,29.94,7.0,Calm,Calm,-,N/A,,Overcast,0,2012-12-18 08:53:00
4:45 AM,71.6,69.8,94,29.95,7.0,Calm,Calm,-,N/A,,Overcast,0,2012-12-18 09:45:00
4:53 AM,71.1,70.0,96,29.95,7.0,Calm,Calm,-,N/A,,Overcast,0,2012-12-18 09:53:00
5:53 AM,69.8,68.0,94,29.95,8.0,South,4.6,-,N/A,,Overcast,190,2012-12-18 10:53:00
6:53 AM,70.0,68.0,93,29.97,10.0,Calm,Calm,-,N/A,,Overcast,0,2012-12-18 11:53:00
7:53 AM,71.1,69.1,93,29.99,10.0,WSW,4.6,-,N/A,,Mostly Cloudy,240,2012-12-18 12:53:00
8:53 AM,75.0,68.0,79,30.01,10.0,West,6.9,-,N/A,,Mostly Cloudy,260,2012-12-18 13:53:00
9:53 AM,78.1,66.9,68,30.02,10.0,West,6.9,-,N/A,,Mostly Cloudy,260,2012-12-18 14:53:00
10:53 AM,80.1,64.9,60,30.02,10.0,West,9.2,-,N/A,,Mostly Cloudy,260,2012-12-18 15:53:00
11:53 AM,80.1,64.0,58,30.00,10.0,West,8.1,-,N/A,,Mostly Cloudy,280,2012-12-18 16:53:00
12:53 PM,82.0,64.0,54,29.98,10.0,West,9.2,-,N/A,,Mostly Cloudy,280,2012-12-18 17:53:00
1:53 PM,82.9,66.0,56,29.96,10.0,West,6.9,-,N/A,,Scattered Clouds,270,2012-12-18 18:53:00
2:53 PM,82.0,64.9,56,29.95,10.0,West,5.8,-,N/A,,Scattered Clouds,260,2012-12-18 19:53:00
3:53 PM,82.9,63.0,51,29.95,10.0,West,6.9,-,N/A,,Scattered Clouds,280,2012-12-18 20:53:00
4:53 PM,82.0,64.0,54,29.96,10.0,Variable,5.8,-,N/A,,Scattered Clouds,0,2012-12-18 21:53:00
5:53 PM,80.1,64.9,60,29.97,10.0,SW,6.9,-,N/A,,Scattered Clouds,230,2012-12-18 22:53:00
6:53 PM,78.1,64.9,64,29.99,10.0,WSW,6.9,-,N/A,,Mostly Cloudy,250,2012-12-18 23:53:00
7:53 PM,75.9,66.9,74,30.00,10.0,West,4.6,-,N/A,,Scattered Clouds,260,2012-12-19 00:53:00
8:53 PM,75.0,68.0,79,30.02,10.0,West,3.5,-,N/A,,Clear,280,2012-12-19 01:53:00
9:53 PM,73.9,69.1,85,30.03,10.0,Calm,Calm,-,N/A,,Clear,0,2012-12-19 02:53:00
10:53 PM,73.0,68.0,84,30.03,10.0,Calm,Calm,-,N/A,,Clear,0,2012-12-19 03:53:00
11:53 PM,72.0,68.0,87,30.03,10.0,WNW,3.5,-,N/A,,Clear,300,2012-12-19 04:53:00